Detall de PIREP

Printer-friendly versionPDF version

[2011/05/06 14:54:00]
Flight IATA:CT1005
Pilot Number:042
Company ICAO:CAT
Aircraft Type:B763/F
PAX:200
Departing Airport: LCLK
Destination Airport: EPWA
Alternate Airport:EPKK
Online: VATSIM
Route:RUDER UM978 ALSUS UL620 VESAR UL619 MUT UL621 BUKOV UP866 LIMVI
Flight Level:F340
No Slew and time accel
No pause
Crash detect
Detect pilot in Cockpit between each 30 and 45 minutes
14:54 Zero fuel Weight: 244977 Lbs, Fuel Weight: 161616 Lbs
14:54 VATSIM:LCLK 061430Z 21018KT 9999 FEW025TCU 21/17 Q1010 NOSIG
14:54 VATSIM:EPWA 061430Z 31010KT 270V340 CAVOK 14/02 Q1024 NOSIG
14:54 VOICE CATALONIAN/EU ROUTE
15:00 Parking Brakes off
15:16 Take-off
15:16 Take off Weight: 403210 Lbs
15:16 Wind: 206 @ 018 Knots Heading: 223
15:16 POS N34 52 20 E033 37 18
15:16 Gear Up: 184 Knots
15:16 Flaps:3 at 184 Knots
15:16 Flaps:2 at 191 Knots
15:16 Flaps:1 at 199 Knots
15:18Flaps:0 at 227 Knots
15:31 Wind:264@051 Knots Heading: 323 Ground Speed: 451 Knots Altitude 32401 ft
15:32 TOC
15:32 Fuel Weight: 149616 Lb
15:46 Wind:262@040 Knots Heading: 352 Ground Speed: 485 Knots Altitude 33976 ft
16:01 Wind:245@029 Knots Heading: 354 Ground Speed: 490 Knots Altitude 34114 ft
16:16 Wind:253@022 Knots Heading: 320 Ground Speed: 469 Knots Altitude 34192 ft
16:31 Wind:253@022 Knots Heading: 319 Ground Speed: 468 Knots Altitude 34307 ft
16:46 Wind:314@053 Knots Heading: 329 Ground Speed: 427 Knots Altitude 34320 ft
17:01 Wind:299@038 Knots Heading: 329 Ground Speed: 445 Knots Altitude 34324 ft
17:16 Wind:323@046 Knots Heading: 333 Ground Speed: 431 Knots Altitude 34330 ft
17:31 Wind:327@047 Knots Heading: 320 Ground Speed: 429 Knots Altitude 34340 ft
17:46 Wind:333@029 Knots Heading: 318 Ground Speed: 449 Knots Altitude 34343ft
17:53 TOD
17:53 Fuel Weight: 118808 Lb
18:01 Wind:340@035 Knots Heading: 323 Ground Speed: 350 Knots Altitude 18172 ft
18:06 Flaps:1 at 229 Knots
18:08 Flaps:2 at 191 Knots
18:12 Flaps:3 at 182 Knots
18:13 Gear Down: 178 Knots
18:13 Flaps:4 at 170 Knots
18:14 Flaps:5 at 161 Knots
18:15 Flaps:6 at 156 Knots
18:16 Wind:297@006 Knots Heading: 330 Ground Speed: 152 Knots Altitude 1660 ft
18:17 TouchDown:Rate -136 ft/min Speed: 138 Knots
18:18 VATSIM:EPWA 061800Z 30006KT CAVOK 13/02 Q1024 NOSIG
18:18 Land
18:18 Wind:293@006 Knots
18:18 Heading: 335
18:18 Flight Duration: 03:02
18:18 Landing Weight: 360212 Lbs
18:18 POS N52 09 48 E020 58 08
18:23 Parking brakes on
18:23 Block to Block Duration: 03:23
18:23 Final Fuel: 114292 Lbls
18:23 Spent Fuel: 47323 Lbls
18:23 Flight Length: 1162 NM
18:23 TOD Land Length: 109 NM

Exportar CSV

Powered by Drupal - Modified by Danger4k